createdAt,value
2023-08-29T00:01:42.386Z,1.92
2023-08-29T00:04:09.644Z,2.03
2023-08-29T00:06:36.842Z,1.95
2023-08-29T00:09:05.177Z,1.42
2023-08-29T00:11:32.226Z,1.70
2023-08-29T00:13:59.155Z,1.83
2023-08-29T00:16:26.134Z,1.58
2023-08-29T00:18:53.241Z,1.63
2023-08-29T00:21:20.100Z,2.30
2023-08-29T00:23:48.880Z,1.90
2023-08-29T00:26:15.856Z,1.70
2023-08-29T00:28:43.150Z,1.70
2023-08-29T00:31:10.028Z,1.65
2023-08-29T00:33:36.897Z,2.20
2023-08-29T00:36:03.986Z,2.00
2023-08-29T00:38:30.837Z,2.10
2023-08-29T00:40:57.732Z,2.00
2023-08-29T00:43:24.595Z,2.53
2023-08-29T00:45:51.733Z,1.90
2023-08-29T00:48:18.808Z,2.00
2023-08-29T00:50:46.331Z,2.00
2023-08-29T00:53:15.828Z,1.90
2023-08-29T00:55:43.510Z,1.80
2023-08-29T00:58:10.375Z,2.00
2023-08-29T01:00:37.662Z,1.92
2023-08-29T01:03:05.012Z,1.52
2023-08-29T01:05:32.290Z,2.38
2023-08-29T01:08:01.673Z,1.80
2023-08-29T01:11:10.424Z,1.60
2023-08-29T01:14:03.734Z,1.63
2023-08-29T01:16:37.373Z,1.90
2023-08-29T01:19:12.599Z,1.60
2023-08-29T01:21:50.883Z,1.73
2023-08-29T01:24:33.253Z,1.90
2023-08-29T01:27:01.467Z,1.58
2023-08-29T01:29:29.243Z,1.73
2023-08-29T01:31:57.202Z,1.80
2023-08-29T01:34:24.311Z,1.55
2023-08-29T01:36:51.950Z,2.05
2023-08-29T01:39:18.927Z,1.70
2023-08-29T01:41:45.901Z,3.05
2023-08-29T01:44:12.814Z,1.48
2023-08-29T01:46:39.748Z,1.90
2023-08-29T01:49:07.394Z,1.85
2023-08-29T01:51:34.414Z,1.80
2023-08-29T01:54:01.447Z,1.85
2023-08-29T01:56:31.045Z,1.90
2023-08-29T01:58:59.079Z,1.80
2023-08-29T02:01:26.230Z,1.85
2023-08-29T02:03:53.446Z,2.05
2023-08-29T02:06:21.142Z,1.88
2023-08-29T02:08:48.482Z,1.50
2023-08-29T02:11:15.415Z,2.03
2023-08-29T02:13:42.321Z,2.00
2023-08-29T02:16:09.736Z,1.98
2023-08-29T02:18:36.658Z,1.67
2023-08-29T02:21:03.666Z,1.73
2023-08-29T02:23:30.596Z,2.20
2023-08-29T02:26:05.085Z,1.70
2023-08-29T02:28:35.609Z,1.75
2023-08-29T02:31:07.313Z,1.98
2023-08-29T02:33:39.575Z,1.80
2023-08-29T02:36:07.191Z,1.60
2023-08-29T02:38:34.927Z,1.70
2023-08-29T02:41:03.433Z,1.75
2023-08-29T02:43:30.498Z,1.60
2023-08-29T02:45:57.508Z,1.73
2023-08-29T02:48:25.375Z,1.55
2023-08-29T02:50:52.734Z,1.90
2023-08-29T02:53:20.927Z,1.88
2023-08-29T02:55:52.306Z,1.88
2023-08-29T02:58:19.980Z,1.92
2023-08-29T03:00:47.017Z,1.73
2023-08-29T03:03:14.716Z,1.70
2023-08-29T03:05:43.479Z,2.13
2023-08-29T03:08:10.512Z,1.42
2023-08-29T03:10:38.505Z,1.85
2023-08-29T03:13:06.173Z,1.90
2023-08-29T03:15:36.060Z,1.83
2023-08-29T03:18:05.021Z,1.92
2023-08-29T03:20:32.282Z,1.85
2023-08-29T03:22:59.258Z,1.85
2023-08-29T03:25:26.161Z,1.88
2023-08-29T03:27:53.119Z,1.90
2023-08-29T03:30:20.153Z,2.20
2023-08-29T03:32:50.781Z,2.00
2023-08-29T03:35:18.242Z,2.05
2023-08-29T03:37:45.431Z,1.70
2023-08-29T03:40:15.718Z,2.83
2023-08-29T03:42:42.885Z,2.72
2023-08-29T03:45:10.105Z,2.70
2023-08-29T03:47:38.596Z,2.17
2023-08-29T03:50:06.748Z,1.80
2023-08-29T03:52:33.657Z,2.15
2023-08-29T03:55:00.732Z,3.13
2023-08-29T03:57:28.333Z,1.95
2023-08-29T03:59:55.718Z,2.00
2023-08-29T04:02:23.060Z,2.60
2023-08-29T04:04:53.436Z,3.15
2023-08-29T04:07:20.654Z,2.00
2023-08-29T04:09:47.561Z,2.10
2023-08-29T04:12:14.551Z,2.00
2023-08-29T04:14:41.417Z,2.20
2023-08-29T04:17:08.460Z,2.28
2023-08-29T04:19:35.371Z,2.40
2023-08-29T04:22:02.287Z,2.53
2023-08-29T04:24:30.646Z,2.35
2023-08-29T04:26:57.818Z,2.40
2023-08-29T04:29:24.768Z,2.70
2023-08-29T04:31:51.932Z,2.25
2023-08-29T04:34:19.036Z,2.63
2023-08-29T04:36:46.624Z,2.20
2023-08-29T04:39:13.674Z,2.20
2023-08-29T04:41:40.866Z,2.50
2023-08-29T04:44:07.850Z,1.80
2023-08-29T04:46:34.792Z,2.45
2023-08-29T04:49:01.683Z,2.58
2023-08-29T04:51:28.602Z,3.00
2023-08-29T04:53:55.521Z,2.05
2023-08-29T04:56:22.486Z,2.08
2023-08-29T04:58:49.499Z,2.45
2023-08-29T05:01:16.432Z,2.40
2023-08-29T05:03:43.417Z,2.03
2023-08-29T05:06:10.432Z,1.73
2023-08-29T05:08:37.966Z,1.80
2023-08-29T05:11:05.480Z,2.00
2023-08-29T05:13:32.528Z,2.35
2023-08-29T05:15:59.476Z,2.33
2023-08-29T05:18:26.385Z,2.25
2023-08-29T05:20:55.642Z,2.53
2023-08-29T05:23:23.446Z,3.08
2023-08-29T05:25:50.804Z,2.08
2023-08-29T05:28:17.724Z,2.50
2023-08-29T05:30:44.930Z,2.28
2023-08-29T05:33:13.343Z,2.60
2023-08-29T05:35:40.246Z,2.35
2023-08-29T05:38:07.587Z,2.60
2023-08-29T05:40:35.152Z,2.65
2023-08-29T05:43:02.504Z,2.80
2023-08-29T05:45:29.383Z,2.35
2023-08-29T05:47:56.372Z,2.42
2023-08-29T05:50:23.364Z,2.90
2023-08-29T05:52:50.275Z,2.33
2023-08-29T05:55:17.627Z,2.40
2023-08-29T05:57:44.594Z,2.50
2023-08-29T06:00:15.059Z,3.45
2023-08-29T06:02:42.100Z,2.75
2023-08-29T06:05:09.386Z,2.42
2023-08-29T06:07:36.291Z,2.17
2023-08-29T06:10:03.786Z,2.28
2023-08-29T06:12:30.656Z,2.38
2023-08-29T06:14:57.605Z,2.40
2023-08-29T06:17:24.485Z,2.42
2023-08-29T06:19:51.399Z,2.88
2023-08-29T06:22:18.292Z,2.25
2023-08-29T06:24:45.347Z,1.92
2023-08-29T06:27:12.356Z,2.03
2023-08-29T06:29:39.371Z,2.40
2023-08-29T06:32:06.630Z,2.13
2023-08-29T06:34:33.524Z,2.22
2023-08-29T06:37:00.472Z,2.10
2023-08-29T06:39:27.358Z,2.53
2023-08-29T06:41:54.222Z,2.75
2023-08-29T06:44:21.132Z,2.20
2023-08-29T06:46:49.750Z,2.15
2023-08-29T06:49:17.138Z,2.75
2023-08-29T06:51:44.019Z,2.22
2023-08-29T06:54:10.926Z,1.55
2023-08-29T06:56:37.803Z,1.80
2023-08-29T06:59:04.776Z,1.75
2023-08-29T07:01:31.755Z,1.60
2023-08-29T07:03:58.658Z,1.67
2023-08-29T07:06:25.682Z,1.73
2023-08-29T07:08:52.631Z,1.90
2023-08-29T07:11:19.535Z,2.10
2023-08-29T07:13:46.422Z,1.60
2023-08-29T07:16:13.370Z,2.35
2023-08-29T07:18:40.288Z,1.70
2023-08-29T07:21:07.327Z,1.60
2023-08-29T07:23:34.962Z,1.92
2023-08-29T07:26:01.837Z,2.20
2023-08-29T07:28:28.799Z,1.83
2023-08-29T07:30:55.889Z,1.80
2023-08-29T07:33:22.909Z,1.45
2023-08-29T07:35:49.916Z,1.80
2023-08-29T07:38:19.075Z,1.65
2023-08-29T07:40:46.982Z,1.40
2023-08-29T07:43:15.366Z,1.67
2023-08-29T07:45:42.468Z,1.75
2023-08-29T07:48:09.671Z,1.20
2023-08-29T07:50:36.821Z,1.75
2023-08-29T07:53:03.832Z,2.13
2023-08-29T07:55:30.783Z,1.58
2023-08-29T07:57:58.327Z,1.20
2023-08-29T08:00:25.353Z,1.40
2023-08-29T08:02:52.257Z,1.85
2023-08-29T08:05:19.923Z,1.70
2023-08-29T08:07:46.983Z,1.50
2023-08-29T08:10:15.603Z,1.38
2023-08-29T08:12:42.722Z,1.60
2023-08-29T08:15:10.372Z,1.42
2023-08-29T08:17:38.383Z,1.70
2023-08-29T08:20:08.116Z,1.40
2023-08-29T08:22:36.176Z,1.45
2023-08-29T08:25:03.713Z,1.73
2023-08-29T08:27:31.181Z,1.65
2023-08-29T08:29:58.635Z,1.48
2023-08-29T08:32:25.732Z,1.52
2023-08-29T08:34:52.782Z,1.00
2023-08-29T08:37:19.666Z,2.08
2023-08-29T08:39:46.606Z,1.40
2023-08-29T08:42:16.020Z,1.35
2023-08-29T08:44:44.023Z,1.40
2023-08-29T08:47:12.956Z,1.08
2023-08-29T08:49:40.835Z,1.35
2023-08-29T08:52:11.246Z,1.30
2023-08-29T08:54:39.165Z,1.30
2023-08-29T08:57:06.245Z,1.20
2023-08-29T08:59:33.160Z,1.20
2023-08-29T09:02:00.237Z,1.52
2023-08-29T09:04:27.356Z,1.70
2023-08-29T09:06:54.281Z,1.27
2023-08-29T09:09:25.768Z,1.13
2023-08-29T09:11:57.858Z,1.10
2023-08-29T09:14:26.077Z,1.30
2023-08-29T09:16:58.871Z,1.25
2023-08-29T09:19:26.777Z,1.25
2023-08-29T09:21:53.720Z,1.10
2023-08-29T09:24:27.545Z,1.30
2023-08-29T09:26:54.427Z,1.30
2023-08-29T09:29:22.627Z,1.00
2023-08-29T09:31:50.059Z,1.20
2023-08-29T09:34:32.992Z,1.40
2023-08-29T09:37:00.702Z,1.20
2023-08-29T09:39:28.345Z,1.05
2023-08-29T09:42:03.562Z,1.30
2023-08-29T09:44:34.964Z,1.20
2023-08-29T09:47:01.848Z,1.80
2023-08-29T09:49:47.098Z,0.80
2023-08-29T09:52:14.879Z,1.38
2023-08-29T09:54:46.368Z,1.30
2023-08-29T09:57:15.900Z,1.13
2023-08-29T09:59:44.531Z,1.00
2023-08-29T10:02:12.734Z,1.20
2023-08-29T10:05:01.200Z,1.38
2023-08-29T10:07:43.379Z,0.90
2023-08-29T10:10:11.715Z,1.27
2023-08-29T10:12:42.332Z,1.17
2023-08-29T10:15:10.355Z,1.13
2023-08-29T10:17:38.450Z,1.20
2023-08-29T10:20:09.758Z,1.10
2023-08-29T10:22:38.577Z,1.08
2023-08-29T10:25:05.953Z,0.88
2023-08-29T10:27:33.957Z,1.10
2023-08-29T10:30:03.065Z,1.10
2023-08-29T10:32:31.428Z,1.13
2023-08-29T10:34:59.067Z,1.13
2023-08-29T10:37:28.043Z,0.98
2023-08-29T10:39:55.129Z,0.93
2023-08-29T10:42:22.368Z,1.00
2023-08-29T10:44:50.344Z,1.30
2023-08-29T10:47:20.861Z,2.15
2023-08-29T10:49:49.117Z,1.42
2023-08-29T10:52:19.716Z,1.30
2023-08-29T10:54:47.065Z,1.40
2023-08-29T10:57:28.766Z,1.20
2023-08-29T10:59:56.638Z,1.10
2023-08-29T11:02:29.031Z,1.38
2023-08-29T11:05:05.228Z,1.10
2023-08-29T11:07:33.238Z,1.00
2023-08-29T11:10:14.024Z,1.00
2023-08-29T11:13:09.380Z,1.38
2023-08-29T11:15:51.380Z,1.15
2023-08-29T11:18:31.987Z,1.25
2023-08-29T11:21:04.486Z,1.08
2023-08-29T11:23:36.278Z,1.50
2023-08-29T11:26:03.423Z,1.27
2023-08-29T11:28:33.508Z,1.38
2023-08-29T11:31:01.142Z,1.10
2023-08-29T11:33:33.262Z,1.15
2023-08-29T11:36:01.685Z,1.70
2023-08-29T11:38:32.786Z,1.20
2023-08-29T11:41:13.398Z,1.35
2023-08-29T11:44:31.137Z,1.17
2023-08-29T11:46:36.195Z,1.30
2023-08-29T11:49:13.905Z,1.27
2023-08-29T11:51:41.929Z,1.10
2023-08-29T11:54:44.399Z,1.23
2023-08-29T11:57:15.526Z,1.17
2023-08-29T11:59:44.097Z,1.10
2023-08-29T12:02:19.793Z,1.45
2023-08-29T12:07:18.883Z,1.73
2023-08-29T12:09:47.651Z,1.38
2023-08-29T12:12:35.672Z,2.10
2023-08-29T12:15:03.556Z,1.63
2023-08-29T12:17:38.059Z,1.58
2023-08-29T12:20:26.032Z,2.42
2023-08-29T12:22:56.553Z,1.30
2023-08-29T12:25:23.454Z,1.52
2023-08-29T12:27:50.552Z,1.33
2023-08-29T12:30:17.515Z,1.50
2023-08-29T12:32:48.563Z,1.80
2023-08-29T12:35:17.683Z,1.40
2023-08-29T12:37:44.780Z,1.30
2023-08-29T12:40:14.027Z,1.80
2023-08-29T12:42:42.400Z,1.38
2023-08-29T12:45:09.679Z,1.80
2023-08-29T12:47:38.797Z,2.22
2023-08-29T12:50:07.101Z,2.03
2023-08-29T12:52:34.127Z,2.17
2023-08-29T12:55:01.024Z,1.60
2023-08-29T12:57:27.990Z,1.52
2023-08-29T12:59:54.870Z,1.85
2023-08-29T13:02:23.000Z,1.63
2023-08-29T13:04:50.204Z,1.20
2023-08-29T13:07:17.180Z,1.30
2023-08-29T13:09:44.876Z,1.50
2023-08-29T13:12:11.773Z,1.27
2023-08-29T13:14:40.186Z,1.38
2023-08-29T13:17:10.921Z,1.60
2023-08-29T13:19:40.432Z,1.45
2023-08-29T13:22:07.863Z,1.65
2023-08-29T13:24:36.028Z,1.58
2023-08-29T13:27:03.099Z,1.40
2023-08-29T13:29:31.534Z,1.58
2023-08-29T13:31:58.595Z,1.48
2023-08-29T13:34:25.740Z,1.60
2023-08-29T13:36:52.616Z,1.30
2023-08-29T13:39:19.600Z,1.40
2023-08-29T13:41:46.818Z,1.60
2023-08-29T13:44:13.749Z,1.20
2023-08-29T13:46:42.973Z,1.25
2023-08-29T13:49:11.252Z,1.33
2023-08-29T13:51:38.740Z,1.35
2023-08-29T13:54:05.810Z,1.90
2023-08-29T13:56:32.705Z,1.67
2023-08-29T13:58:59.603Z,1.55
2023-08-29T14:01:26.591Z,1.27
2023-08-29T14:03:53.621Z,1.17
2023-08-29T14:06:20.650Z,1.40
2023-08-29T14:08:49.658Z,1.30
2023-08-29T14:11:16.696Z,1.35
2023-08-29T14:13:43.641Z,1.33
2023-08-29T14:16:10.758Z,1.77
2023-08-29T14:18:37.712Z,1.73
2023-08-29T14:21:04.696Z,1.30
2023-08-29T14:23:31.603Z,1.98
2023-08-29T14:25:58.501Z,1.25
2023-08-29T14:28:26.201Z,1.52
2023-08-29T14:30:53.261Z,1.60
2023-08-29T14:33:20.220Z,1.42
2023-08-29T14:35:47.162Z,1.45
2023-08-29T14:38:14.966Z,1.30
2023-08-29T14:40:41.845Z,1.00
2023-08-29T14:43:08.771Z,1.38
2023-08-29T14:45:41.220Z,1.50
2023-08-29T14:48:09.068Z,1.25
2023-08-29T14:50:36.418Z,1.58
2023-08-29T14:53:03.450Z,1.48
2023-08-29T14:55:30.343Z,1.42
2023-08-29T14:58:00.276Z,1.10
2023-08-29T15:00:27.183Z,1.70
2023-08-29T15:02:55.467Z,1.80
2023-08-29T15:05:22.870Z,1.40
2023-08-29T15:07:49.811Z,1.58
2023-08-29T15:10:16.801Z,1.38
2023-08-29T15:12:43.688Z,1.25
2023-08-29T15:15:10.851Z,1.15
2023-08-29T15:17:37.810Z,1.40
2023-08-29T15:20:11.194Z,1.52
2023-08-29T15:22:38.555Z,1.40
2023-08-29T15:25:07.346Z,1.35
2023-08-29T15:27:34.309Z,1.50
2023-08-29T15:30:01.384Z,1.13
2023-08-29T15:32:28.336Z,1.30
2023-08-29T15:34:55.401Z,1.55
2023-08-29T15:37:22.438Z,1.25
2023-08-29T15:39:49.345Z,1.20
2023-08-29T15:42:16.778Z,1.92
2023-08-29T15:44:44.265Z,1.55
2023-08-29T15:47:11.162Z,1.10
2023-08-29T15:49:39.143Z,1.60
2023-08-29T15:52:06.063Z,1.30
2023-08-29T15:54:33.101Z,1.10
2023-08-29T15:57:01.796Z,1.30
2023-08-29T15:59:30.800Z,1.58
2023-08-29T16:01:58.718Z,1.10
2023-08-29T16:04:25.695Z,1.60
2023-08-29T16:06:52.794Z,1.63
2023-08-29T16:09:19.719Z,1.23
2023-08-29T16:11:46.602Z,1.42
2023-08-29T16:14:13.497Z,1.25
2023-08-29T16:16:40.504Z,1.40
2023-08-29T16:19:07.392Z,1.88
2023-08-29T16:21:34.340Z,1.80
2023-08-29T16:24:01.328Z,1.60
2023-08-29T16:26:28.191Z,1.38
2023-08-29T16:28:55.136Z,1.63
2023-08-29T16:31:22.658Z,1.67
2023-08-29T16:33:49.718Z,1.08
2023-08-29T16:36:16.686Z,2.35
2023-08-29T16:38:43.615Z,1.50
2023-08-29T16:41:10.481Z,1.20
2023-08-29T16:43:37.391Z,1.48
2023-08-29T16:46:04.430Z,1.15
2023-08-29T16:48:31.489Z,1.40
2023-08-29T16:50:58.388Z,1.45
2023-08-29T16:53:25.801Z,1.30
2023-08-29T16:55:53.534Z,1.38
2023-08-29T16:58:20.608Z,1.23
2023-08-29T17:00:48.281Z,1.13
2023-08-29T17:03:15.300Z,1.00
2023-08-29T17:05:42.259Z,1.40
2023-08-29T17:08:09.684Z,1.50
2023-08-29T17:10:37.921Z,1.13
2023-08-29T17:13:04.932Z,1.77
2023-08-29T17:15:31.839Z,1.23
2023-08-29T17:17:58.867Z,1.40
2023-08-29T17:20:25.839Z,1.27
2023-08-29T17:22:52.811Z,1.35
2023-08-29T17:25:19.892Z,1.20
2023-08-29T17:27:46.849Z,1.40
2023-08-29T17:30:14.077Z,1.10
2023-08-29T17:32:41.681Z,1.15
2023-08-29T17:35:09.238Z,1.10
2023-08-29T17:37:40.264Z,1.40
2023-08-29T17:40:09.183Z,1.55
2023-08-29T17:42:36.113Z,2.25
2023-08-29T17:45:05.622Z,1.67
2023-08-29T17:47:35.813Z,1.42
2023-08-29T17:50:04.409Z,1.90
2023-08-29T17:52:31.559Z,1.63
2023-08-29T17:54:59.034Z,1.30
2023-08-29T17:57:26.114Z,1.50
2023-08-29T17:59:55.795Z,1.60
2023-08-29T18:02:26.556Z,1.52
2023-08-29T18:04:54.526Z,2.08
2023-08-29T18:07:21.733Z,2.10
2023-08-29T18:10:08.220Z,1.88
2023-08-29T18:12:35.453Z,1.88
2023-08-29T18:15:02.526Z,2.10
2023-08-29T18:17:29.500Z,1.83
2023-08-29T18:19:58.368Z,1.65
2023-08-29T18:22:26.268Z,2.15
2023-08-29T18:24:53.742Z,1.55
2023-08-29T18:27:24.447Z,1.80
2023-08-29T18:29:51.522Z,1.40
2023-08-29T18:32:18.697Z,1.50
2023-08-29T18:34:45.707Z,1.40
2023-08-29T18:37:12.763Z,1.30
2023-08-29T18:39:39.778Z,1.60
2023-08-29T18:42:07.806Z,1.40
2023-08-29T18:44:37.780Z,1.25
2023-08-29T18:47:05.276Z,1.27
2023-08-29T18:49:33.536Z,1.45
2023-08-29T18:52:00.533Z,1.45
2023-08-29T18:54:27.504Z,1.52
2023-08-29T18:56:54.456Z,2.03
2023-08-29T18:59:22.492Z,1.50
2023-08-29T19:01:49.425Z,1.17
2023-08-29T19:04:16.321Z,1.55
2023-08-29T19:06:43.245Z,1.40
2023-08-29T19:09:10.168Z,1.42
2023-08-29T19:11:37.413Z,1.40
2023-08-29T19:14:04.702Z,1.90
2023-08-29T19:16:33.213Z,1.10
2023-08-29T19:19:01.694Z,1.73
2023-08-29T19:21:28.663Z,9.23
2023-08-29T19:23:56.105Z,7.63
2023-08-29T19:26:24.654Z,6.47
2023-08-29T19:28:51.538Z,5.57
2023-08-29T19:31:18.458Z,4.57
2023-08-29T19:33:45.453Z,3.25
2023-08-29T19:36:14.586Z,2.38
2023-08-29T19:38:41.680Z,1.80
2023-08-29T19:41:09.198Z,1.52
2023-08-29T19:43:36.389Z,2.00
2023-08-29T19:46:03.794Z,1.88
2023-08-29T19:48:31.729Z,1.95
2023-08-29T19:50:59.032Z,2.03
2023-08-29T19:53:26.307Z,1.58
2023-08-29T19:55:56.436Z,2.20
2023-08-29T19:58:23.398Z,1.30
2023-08-29T20:00:53.322Z,1.92
2023-08-29T20:03:20.319Z,1.60
2023-08-29T20:05:47.260Z,1.27
2023-08-29T20:08:15.247Z,1.58
2023-08-29T20:10:44.609Z,1.60
2023-08-29T20:13:11.814Z,2.38
2023-08-29T20:15:43.169Z,1.63
2023-08-29T20:18:11.526Z,2.00
2023-08-29T20:20:42.637Z,1.50
2023-08-29T20:23:10.761Z,1.85
2023-08-29T20:25:39.166Z,1.38
2023-08-29T20:28:11.997Z,1.83
2023-08-29T20:30:39.591Z,1.85
2023-08-29T20:33:06.948Z,1.60
2023-08-29T20:35:35.410Z,1.52
2023-08-29T20:38:05.545Z,1.77
2023-08-29T20:40:33.265Z,2.80
2023-08-29T20:43:00.378Z,2.33
2023-08-29T20:45:27.293Z,1.70
2023-08-29T20:47:56.187Z,1.67
2023-08-29T20:50:25.266Z,1.35
2023-08-29T20:52:52.321Z,1.80
2023-08-29T20:55:19.502Z,1.88
2023-08-29T20:57:46.991Z,2.03
2023-08-29T21:00:14.405Z,1.45
2023-08-29T21:02:42.006Z,2.15
2023-08-29T21:05:09.377Z,1.85
2023-08-29T21:07:36.374Z,1.60
2023-08-29T21:10:03.403Z,1.70
2023-08-29T21:12:31.237Z,1.73
2023-08-29T21:14:58.160Z,1.90
2023-08-29T21:17:26.746Z,1.70
2023-08-29T21:19:53.729Z,1.70
2023-08-29T21:22:20.623Z,1.85
2023-08-29T21:24:47.544Z,2.17
2023-08-29T21:27:14.586Z,1.67
2023-08-29T21:29:41.446Z,1.98
2023-08-29T21:32:08.346Z,1.90
2023-08-29T21:34:35.245Z,2.22
2023-08-29T21:37:02.332Z,2.47
2023-08-29T21:39:29.281Z,3.22
2023-08-29T21:41:56.319Z,2.88
2023-08-29T21:44:23.198Z,3.58
2023-08-29T21:46:51.320Z,2.75
2023-08-29T21:49:18.277Z,2.88
2023-08-29T21:51:45.205Z,2.95
2023-08-29T21:54:12.103Z,2.80
2023-08-29T21:56:39.144Z,2.58
2023-08-29T21:59:06.060Z,3.22
2023-08-29T22:01:32.987Z,2.55
2023-08-29T22:03:59.937Z,2.83
2023-08-29T22:06:26.902Z,2.85
2023-08-29T22:08:53.772Z,2.08
2023-08-29T22:11:22.667Z,2.92
2023-08-29T22:13:49.584Z,2.47
2023-08-29T22:16:16.637Z,2.63
2023-08-29T22:18:43.558Z,2.50
2023-08-29T22:21:10.687Z,2.63
2023-08-29T22:23:37.741Z,2.30
2023-08-29T22:26:06.926Z,2.75
2023-08-29T22:28:33.905Z,2.17
2023-08-29T22:31:00.929Z,2.33
2023-08-29T22:33:29.213Z,2.13
2023-08-29T22:35:58.059Z,2.17
2023-08-29T22:38:25.367Z,2.40
2023-08-29T22:40:52.287Z,2.10
2023-08-29T22:43:19.219Z,1.90
2023-08-29T22:45:46.187Z,1.98
2023-08-29T22:48:14.711Z,2.30
2023-08-29T22:50:42.253Z,2.63
2023-08-29T22:53:09.147Z,2.08
2023-08-29T22:55:36.538Z,2.15
2023-08-29T22:58:05.140Z,2.28
2023-08-29T23:00:32.999Z,2.10
2023-08-29T23:03:01.047Z,2.30
2023-08-29T23:05:28.098Z,2.28
2023-08-29T23:07:55.055Z,2.20
2023-08-29T23:10:22.524Z,3.08
2023-08-29T23:12:49.484Z,2.22
2023-08-29T23:15:16.596Z,2.53
2023-08-29T23:17:43.625Z,2.22
2023-08-29T23:20:11.299Z,1.92
2023-08-29T23:22:38.254Z,2.15
2023-08-29T23:25:05.866Z,2.78
2023-08-29T23:27:32.745Z,2.20
2023-08-29T23:29:59.690Z,2.47
2023-08-29T23:32:27.674Z,2.28
2023-08-29T23:34:58.901Z,2.00
2023-08-29T23:37:25.835Z,1.90
2023-08-29T23:39:52.928Z,2.20
2023-08-29T23:42:19.826Z,2.22
2023-08-29T23:44:46.768Z,2.20
2023-08-29T23:47:13.679Z,2.22
2023-08-29T23:49:40.620Z,2.47
2023-08-29T23:52:07.660Z,2.30
2023-08-29T23:54:34.846Z,1.95
2023-08-29T23:57:01.764Z,3.13
2023-08-29T23:59:30.129Z,2.50
